Date,TemperatureHighF,TemperatureAvgF,TemperatureLowF,DewpointHighF,DewpointAvgF,DewpointLowF,HumidityHigh,HumidityAvg,HumidityLow,PressureMaxIn,PressureMinIn,WindSpeedMaxMPH,WindSpeedAvgMPH,GustSpeedMaxMPH,PrecipitationSumIn
2013-5-1,80.7,65.1,46.3,59.5,53.1,45.4,98,69,40,30.23,30.07,3,1,8,0.00
2013-5-2,78.5,65.6,50.1,57.6,50.1,44.6,90,60,38,30.24,30.13,4,1,11,0.00
2013-5-3,77.2,65.7,53.7,56.0,44.0,32.6,66,48,21,30.13,30.05,5,1,12,0.00
2013-5-4,69.5,61.9,51.7,47.6,42.5,37.5,80,51,32,30.12,30.06,5,2,12,0.00
2013-5-5,72.7,60.9,46.8,45.7,39.4,31.2,85,49,23,30.11,30.02,4,1,13,0.00
2013-5-6,74.1,59.9,41.5,50.9,43.2,37.4,91,56,38,30.07,29.98,3,1,9,0.00
2013-5-7,75.6,62.3,45.8,55.2,47.1,38.5,81,60,36,30.07,29.98,5,1,15,0.00
2013-5-8,81.9,64.3,50.8,58.4,50.3,45.2,91,64,33,30.02,29.92,3,0,7,0.01
2013-5-9,81.7,66.3,47.6,57.8,50.2,44.0,98,62,29,29.96,29.89,2,0,5,0.00
2013-5-10,69.8,58.1,42.0,62.1,52.7,38.4,97,83,56,29.90,29.73,4,1,13,0.32
2013-5-11,61.9,47.4,38.4,48.3,41.1,32.8,93,80,57,29.90,29.73,7,2,17,0.00
2013-5-12,47.7,40.4,30.0,33.8,29.7,24.2,89,67,48,30.11,29.88,7,3,18,0.00
2013-5-13,55.3,41.1,26.1,29.8,25.7,22.2,94,59,29,30.20,30.10,4,1,10,0.00
2013-5-14,77.4,55.5,37.8,50.3,40.5,30.5,91,59,37,30.13,29.73,3,1,7,0.00
2013-5-15,82.5,68.7,49.7,60.1,50.0,45.8,98,57,29,29.77,29.58,7,2,17,0.01
2013-5-16,83.0,67.7,47.5,50.3,45.2,37.8,89,48,25,30.01,29.77,4,1,12,0.00
2013-5-17,73.7,60.3,47.5,46.1,42.6,38.0,77,54,36,30.15,30.01,3,1,8,0.00
2013-5-18,80.5,66.5,55.2,49.4,45.1,41.4,67,48,30,30.15,30.03,4,2,10,0.00
2013-5-19,86.8,70.5,52.0,65.5,56.2,45.3,84,62,43,30.04,29.87,2,0,6,0.00
2013-5-20,89.3,74.5,59.5,72.0,64.5,58.1,97,74,42,29.92,29.75,2,0,8,0.00
2013-5-21,85.8,75.7,65.9,69.5,63.8,60.1,94,69,44,29.80,29.69,3,0,11,0.05
2013-5-22,81.9,68.6,62.1,66.5,63.2,59.6,97,84,50,29.72,29.60,3,0,14,0.22
2013-5-23,63.2,54.4,41.9,60.7,52.3,38.6,98,92,84,30.15,29.67,4,1,13,0.20
2013-5-24,56.2,46.1,37.7,39.2,35.4,32.1,93,69,43,30.37,30.15,4,1,13,0.00
2013-5-25,66.7,50.8,31.6,41.8,35.9,30.8,98,62,34,30.42,30.29,2,1,7,0.00
2013-5-26,71.4,54.2,33.4,41.7,35.7,31.0,98,56,26,30.36,30.24,2,0,8,0.00
2013-5-27,63.0,49.9,38.1,50.1,42.3,34.4,97,78,36,30.28,30.03,2,1,6,0.57
2013-5-28,73.6,61.1,50.5,69.9,59.6,49.7,98,95,82,30.03,29.81,3,0,6,0.22
2013-5-29,84.3,73.8,63.2,67.5,65.0,60.9,94,75,48,29.97,29.76,5,1,15,0.00
2013-5-30,87.3,72.3,61.8,73.5,66.5,60.9,98,84,55,30.05,29.95,2,0,6,0.30
2013-5-31,82.6,71.3,63.8,70.7,67.1,62.8,98,87,64,29.99,29.84,4,0,10,0.32